Time;durP1;ratioP1;P1;durP2;ratioP2;P2;SDS_P1;SDS_P2;PMS_P1;PMS_P2;Temp;Humidity;BMP_temperature;BMP_pressure;BME280_temperature;BME280_humidity;BME280_pressure;Samples;Min_cycle;Max_cycle;Signal;HPM_P1;HPM_P2
2022/03/10 00:00:37;;;;;;;;;;;;;;;;;;5093068;28;789;-62
2022/03/10 00:03:02;;;;;;;;;;;;;;;;;;5091794;28;850;-62
2022/03/10 00:05:28;;;;;;;;;;;;;;;;;;5092346;28;753;-62
2022/03/10 00:07:53;;;;;;;;;;;;;;;;;;5090900;28;911;-62
2022/03/10 00:10:19;;;;;;;;;;;;;;;;;;5092377;28;1978;-60
2022/03/10 00:12:51;;;;;;;;;;;;;;;;;;5092711;28;892;-62
2022/03/10 00:15:18;;;;;;;;;;;;;;;;;;5092229;28;833;-62
2022/03/10 00:17:43;;;;;;;;;;;;;;;;;;5092785;28;817;-62
2022/03/10 00:20:09;;;;;;;;;;;;;;;;;;5091962;28;821;-62
2022/03/10 00:22:48;;;;;;;;;;;;;;;;;;5092150;28;970;-62
2022/03/10 00:25:13;;;;;;;;;;;;;;;;;;5092269;28;836;-62
2022/03/10 00:27:39;;;;;;;;;;;;;;;;;;5092304;28;864;-62
2022/03/10 00:30:05;;;;;;;;;;;;;;;;;;5091374;28;1976;-62
2022/03/10 00:32:30;;;;;;;;;;;;;;;;;;5091860;28;1184;-62
2022/03/10 00:34:56;;;;;;;;;;;;;;;;;;5091678;28;782;-62
2022/03/10 00:37:21;;;;;;;;;;;;;;;;;;5090683;28;829;-62
2022/03/10 00:39:46;;;;;;;;;;;;;;;;;;5092372;28;903;-63
2022/03/10 00:42:11;;;;;;;;;;;;;;;;;;5091758;28;867;-62
2022/03/10 00:44:37;;;;;;;;;;;;;;;;;;5091179;28;960;-62
2022/03/10 00:47:02;;;;;;;;;;;;;;;;;;5091478;28;828;-62
2022/03/10 00:49:27;;;;;;;;;;;;;;;;;;5091962;28;1973;-62
2022/03/10 00:51:53;;;;;;;;;;;;;;;;;;5091905;28;849;-62
2022/03/10 00:54:18;;;;;;;;;;;;;;;;;;5091518;28;892;-62
2022/03/10 00:56:43;;;;;;;;;;;;;;;;;;5091920;28;832;-62
2022/03/10 00:59:08;;;;;;;;;;;;;;;;;;5091130;28;892;-62
2022/03/10 01:01:34;;;;;;;;;;;;;;;;;;5091539;28;1038;-62
2022/03/10 01:03:59;;;;;;;;;;;;;;;;;;5090491;28;840;-62
2022/03/10 01:06:24;;;;;;;;;;;;;;;;;;5091853;28;954;-62
2022/03/10 01:08:49;;;;;;;;;;;;;;;;;;5091844;28;919;-62
2022/03/10 01:11:15;;;;;;;;;;;;;;;;;;5091668;28;1926;-62
2022/03/10 01:13:40;;;;;;;;;;;;;;;;;;5092187;28;841;-62
2022/03/10 01:16:05;;;;;;;;;;;;;;;;;;5089746;28;821;-62
2022/03/10 01:18:31;;;;;;;;;;;;;;;;;;5091995;28;892;-62
2022/03/10 01:20:56;;;;;;;;;;;;;;;;;;5091800;28;891;-61
2022/03/10 01:23:21;;;;;;;;;;;;;;;;;;5091311;28;876;-62
2022/03/10 01:25:46;;;;;;;;;;;;;;;;;;5091855;28;899;-62
2022/03/10 01:28:12;;;;;;;;;;;;;;;;;;5091261;28;930;-62
2022/03/10 01:30:37;;;;;;;;;;;;;;;;;;5091245;28;1969;-62
2022/03/10 01:33:02;;;;;;;;;;;;;;;;;;5091181;28;836;-62
2022/03/10 01:35:27;;;;;;;;;;;;;;;;;;5092090;28;832;-62
2022/03/10 01:37:53;;;;;;;;;;;;;;;;;;5091652;28;844;-62
2022/03/10 01:40:18;;;;;;;;;;;;;;;;;;5090717;28;863;-62
2022/03/10 01:42:44;;;;;;;;;;;;;;;;;;5091521;28;914;-62
2022/03/10 01:45:10;;;;;;;;;;;;;;;;;;5090762;28;1002;-62
2022/03/10 01:47:36;;;;;;;;;;;;;;;;;;5091296;28;926;-62
2022/03/10 01:50:01;;;;;;;;;;;;;;;;;;5090600;28;1914;-62
2022/03/10 01:52:27;;;;;;;;;;;;;;;;;;5089692;28;1273;-62
2022/03/10 01:54:52;;;;;;;;;;;;;;;;;;5091084;28;914;-62
2022/03/10 01:57:18;;;;;;;;;;;;;;;;;;5090655;28;907;-62
2022/03/10 01:59:43;;;;;;;;;;;;;;;;;;5091101;28;1053;-62
2022/03/10 02:02:10;;;;;;;;;;;;;;;;;;5090867;28;1051;-62
2022/03/10 02:04:35;;;;;;;;;;;;;;;;;;5091215;28;837;-62
2022/03/10 02:07:06;;;;;;;;;;;;;;;;;;5090769;28;895;-62
2022/03/10 02:12:16;;;;;;;;;;;;;;;;;;5091887;28;718;-62
2022/03/10 02:17:26;;;;;;;;;;;;;;;;;;5095075;28;662;-65
2022/03/10 02:19:52;;;;;;;;;;;;;;;;;;5094915;28;927;-65
2022/03/10 02:22:18;;;;;;;;;;;;;;;;;;5094366;28;863;-65
2022/03/10 02:24:44;;;;;;;;;;;;;;;;;;5095124;28;813;-65
2022/03/10 02:27:18;;;;;;;;;;;;;;;;;;5094486;28;901;-65
2022/03/10 02:29:44;;;;;;;;;;;;;;;;;;5094819;28;1956;-62
2022/03/10 02:32:10;;;;;;;;;;;;;;;;;;5094593;28;1049;-62
2022/03/10 02:34:36;;;;;;;;;;;;;;;;;;5095609;28;848;-62
2022/03/10 02:37:01;;;;;;;;;;;;;;;;;;5094722;28;828;-62
2022/03/10 02:39:26;;;;;;;;;;;;;;;;;;5094430;28;825;-62
2022/03/10 02:41:52;;;;;;;;;;;;;;;;;;5094459;28;891;-62
2022/03/10 02:44:17;;;;;;;;;;;;;;;;;;5094082;28;983;-62
2022/03/10 02:46:42;;;;;;;;;;;;;;;;;;5094526;28;1018;-62
2022/03/10 02:49:07;;;;;;;;;;;;;;;;;;5094545;28;1030;-62
2022/03/10 02:51:33;;;;;;;;;;;;;;;;;;5094588;28;1914;-62
2022/03/10 02:53:58;;;;;;;;;;;;;;;;;;5095362;28;983;-62
2022/03/10 02:56:24;;;;;;;;;;;;;;;;;;5094918;28;883;-63
2022/03/10 02:58:49;;;;;;;;;;;;;;;;;;5094361;28;1010;-62
2022/03/10 03:01:14;;;;;;;;;;;;;;;;;;5094494;28;995;-66
2022/03/10 03:03:39;;;;;;;;;;;;;;;;;;5095212;28;809;-63
2022/03/10 03:06:04;;;;;;;;;;;;;;;;;;5094615;28;1058;-61
2022/03/10 03:08:30;;;;;;;;;;;;;;;;;;5094414;28;987;-63
2022/03/10 03:10:55;;;;;;;;;;;;;;;;;;5094992;28;1882;-62
2022/03/10 03:13:20;;;;;;;;;;;;;;;;;;5094350;28;994;-63
2022/03/10 03:15:46;;;;;;;;;;;;;;;;;;5094279;28;836;-62
2022/03/10 03:18:11;;;;;;;;;;;;;;;;;;5093966;28;813;-62
2022/03/10 03:20:36;;;;;;;;;;;;;;;;;;5092465;28;1399;-62
2022/03/10 03:23:02;;;;;;;;;;;;;;;;;;5093183;28;816;-62
2022/03/10 03:25:27;;;;;;;;;;;;;;;;;;5092799;28;789;-62
2022/03/10 03:27:52;;;;;;;;;;;;;;;;;;5093178;28;995;-62
2022/03/10 03:30:18;;;;;;;;;;;;;;;;;;5092587;28;1902;-62
2022/03/10 03:32:44;;;;;;;;;;;;;;;;;;5092910;28;1290;-60
2022/03/10 03:35:10;;;;;;;;;;;;;;;;;;5092863;28;896;-60
2022/03/10 03:37:35;;;;;;;;;;;;;;;;;;5092934;28;843;-60
2022/03/10 03:40:00;;;;;;;;;;;;;;;;;;5091975;28;820;-60
2022/03/10 03:42:29;;;;;;;;;;;;;;;;;;5092950;28;800;-61
2022/03/10 03:44:54;;;;;;;;;;;;;;;;;;5092862;28;848;-60
2022/03/10 03:47:20;;;;;;;;;;;;;;;;;;5092368;28;859;-60
2022/03/10 03:49:45;;;;;;;;;;;;;;;;;;5092781;28;1965;-60
2022/03/10 03:52:10;;;;;;;;;;;;;;;;;;5092651;28;983;-60
2022/03/10 03:54:35;;;;;;;;;;;;;;;;;;5092507;28;919;-61
2022/03/10 03:57:01;;;;;;;;;;;;;;;;;;5092473;28;873;-61
2022/03/10 03:59:26;;;;;;;;;;;;;;;;;;5092046;28;911;-61
2022/03/10 04:01:51;;;;;;;;;;;;;;;;;;5091347;28;1357;-61
2022/03/10 04:04:19;;;;;;;;;;;;;;;;;;5092363;28;1037;-61
2022/03/10 04:06:45;;;;;;;;;;;;;;;;;;5092636;28;898;-61
2022/03/10 04:09:10;;;;;;;;;;;;;;;;;;5092466;28;876;-61
2022/03/10 04:11:37;;;;;;;;;;;;;;;;;;5092008;28;1909;-61
2022/03/10 04:14:02;;;;;;;;;;;;;;;;;;5092452;28;904;-61
2022/03/10 04:16:27;;;;;;;;;;;;;;;;;;5090631;28;1265;-61
2022/03/10 04:18:52;;;;;;;;;;;;;;;;;;5092059;28;970;-61
2022/03/10 04:21:18;;;;;;;;;;;;;;;;;;5091663;28;944;-61
2022/03/10 04:23:43;;;;;;;;;;;;;;;;;;5091800;28;904;-61
2022/03/10 04:26:08;;;;;;;;;;;;;;;;;;5092134;28;906;-60
2022/03/10 04:28:34;;;;;;;;;;;;;;;;;;5091559;28;911;-60
2022/03/10 04:30:59;;;;;;;;;;;;;;;;;;5091205;28;1970;-61
2022/03/10 04:33:24;;;;;;;;;;;;;;;;;;5091389;28;821;-61
2022/03/10 04:35:52;;;;;;;;;;;;;;;;;;5091226;28;758;-61
2022/03/10 04:38:18;;;;;;;;;;;;;;;;;;5090188;28;837;-61
2022/03/10 04:40:44;;;;;;;;;;;;;;;;;;5092022;28;848;-61
2022/03/10 04:43:09;;;;;;;;;;;;;;;;;;5092149;28;836;-62
2022/03/10 04:45:34;;;;;;;;;;;;;;;;;;5091837;28;832;-61
2022/03/10 04:48:00;;;;;;;;;;;;;;;;;;5092013;28;770;-61
2022/03/10 04:50:25;;;;;;;;;;;;;;;;;;5091514;28;1971;-61
2022/03/10 04:52:50;;;;;;;;;;;;;;;;;;5091842;28;924;-61
2022/03/10 04:55:16;;;;;;;;;;;;;;;;;;5091360;28;801;-61
2022/03/10 04:57:42;;;;;;;;;;;;;;;;;;5091958;28;1040;-62
2022/03/10 05:00:10;;;;;;;;;;;;;;;;;;5091767;28;817;-61
2022/03/10 05:02:36;;;;;;;;;;;;;;;;;;5091703;28;842;-61
2022/03/10 05:05:02;;;;;;;;;;;;;;;;;;5091352;28;833;-61
2022/03/10 05:07:27;;;;;;;;;;;;;;;;;;5091149;28;844;-61
2022/03/10 05:09:53;;;;;;;;;;;;;;;;;;5091505;28;1957;-62
2022/03/10 05:12:18;;;;;;;;;;;;;;;;;;5091083;28;1050;-62
2022/03/10 05:14:43;;;;;;;;;;;;;;;;;;5091468;28;808;-62
2022/03/10 05:17:08;;;;;;;;;;;;;;;;;;5090851;28;824;-61
2022/03/10 05:19:34;;;;;;;;;;;;;;;;;;5090170;28;934;-61
2022/03/10 05:21:59;;;;;;;;;;;;;;;;;;5090685;28;923;-61
2022/03/10 05:24:24;;;;;;;;;;;;;;;;;;5089744;28;1274;-60
2022/03/10 05:26:50;;;;;;;;;;;;;;;;;;5089400;28;1207;-60
2022/03/10 05:29:15;;;;;;;;;;;;;;;;;;5089201;28;1186;-60
2022/03/10 05:31:40;;;;;;;;;;;;;;;;;;5089529;28;1901;-61
2022/03/10 05:34:06;;;;;;;;;;;;;;;;;;5089161;28;1222;-61
2022/03/10 05:36:32;;;;;;;;;;;;;;;;;;5089672;28;1195;-61
2022/03/10 05:38:57;;;;;;;;;;;;;;;;;;5090454;28;848;-61
2022/03/10 05:41:22;;;;;;;;;;;;;;;;;;5090223;28;892;-61
2022/03/10 05:43:47;;;;;;;;;;;;;;;;;;5090355;28;836;-61
2022/03/10 05:46:13;;;;;;;;;;;;;;;;;;5091143;28;1003;-62
2022/03/10 05:48:38;;;;;;;;;;;;;;;;;;5094716;28;1057;-61
2022/03/10 05:51:03;;;;;;;;;;;;;;;;;;5093352;28;2005;-61
2022/03/10 05:53:29;;;;;;;;;;;;;;;;;;5093137;28;1434;-61
2022/03/10 05:55:54;;;;;;;;;;;;;;;;;;5094457;28;851;-61
2022/03/10 05:58:19;;;;;;;;;;;;;;;;;;5094422;28;964;-61
2022/03/10 06:00:44;;;;;;;;;;;;;;;;;;5094723;28;879;-61
2022/03/10 06:03:10;;;;;;;;;;;;;;;;;;5094604;28;907;-61
2022/03/10 06:05:36;;;;;;;;;;;;;;;;;;5094452;28;915;-61
2022/03/10 06:08:01;;;;;;;;;;;;;;;;;;5094956;28;899;-61
2022/03/10 06:10:26;;;;;;;;;;;;;;;;;;5094253;28;1972;-61
2022/03/10 06:12:52;;;;;;;;;;;;;;;;;;5094195;28;987;-62
2022/03/10 06:15:17;;;;;;;;;;;;;;;;;;5094127;28;958;-61
2022/03/10 06:17:42;;;;;;;;;;;;;;;;;;5092801;28;904;-61
2022/03/10 06:20:08;;;;;;;;;;;;;;;;;;5094355;28;927;-61
2022/03/10 06:22:34;;;;;;;;;;;;;;;;;;5093295;28;922;-61
2022/03/10 06:24:59;;;;;;;;;;;;;;;;;;5094063;28;804;-61
2022/03/10 06:27:25;;;;;;;;;;;;;;;;;;5094340;28;946;-61
2022/03/10 06:29:51;;;;;;;;;;;;;;;;;;5093879;28;1955;-61
2022/03/10 06:32:17;;;;;;;;;;;;;;;;;;5093657;28;1247;-61
2022/03/10 06:34:43;;;;;;;;;;;;;;;;;;5094227;28;969;-61
2022/03/10 06:37:08;;;;;;;;;;;;;;;;;;5093215;28;876;-61
2022/03/10 06:39:34;;;;;;;;;;;;;;;;;;5094546;28;935;-61
2022/03/10 06:41:59;;;;;;;;;;;;;;;;;;5093121;28;852;-61
2022/03/10 06:44:25;;;;;;;;;;;;;;;;;;5094306;28;773;-60
2022/03/10 06:46:50;;;;;;;;;;;;;;;;;;5093949;28;996;-61
2022/03/10 06:49:16;;;;;;;;;;;;;;;;;;5093875;28;884;-60
2022/03/10 06:51:41;;;;;;;;;;;;;;;;;;5093920;28;1980;-61
2022/03/10 06:54:06;;;;;;;;;;;;;;;;;;5092982;28;900;-61
2022/03/10 06:56:32;;;;;;;;;;;;;;;;;;5094116;28;979;-60
2022/03/10 06:58:57;;;;;;;;;;;;;;;;;;5092937;28;920;-61
2022/03/10 07:01:22;;;;;;;;;;;;;;;;;;5093788;28;777;-61
2022/03/10 07:03:48;;;;;;;;;;;;;;;;;;5093612;28;891;-61
2022/03/10 07:06:13;;;;;;;;;;;;;;;;;;5093716;28;891;-61
2022/03/10 07:08:38;;;;;;;;;;;;;;;;;;5093386;28;1108;-60
2022/03/10 07:11:03;;;;;;;;;;;;;;;;;;5093062;28;1914;-61
2022/03/10 07:13:29;;;;;;;;;;;;;;;;;;5093261;28;863;-61
2022/03/10 07:15:54;;;;;;;;;;;;;;;;;;5092791;28;828;-61
2022/03/10 07:18:19;;;;;;;;;;;;;;;;;;5092883;28;946;-61
2022/03/10 07:20:45;;;;;;;;;;;;;;;;;;5092752;28;900;-61
2022/03/10 07:23:10;;;;;;;;;;;;;;;;;;5093092;28;872;-61
2022/03/10 07:25:35;;;;;;;;;;;;;;;;;;5093067;28;765;-61
2022/03/10 07:28:01;;;;;;;;;;;;;;;;;;5092318;28;990;-61
2022/03/10 07:30:26;;;;;;;;;;;;;;;;;;5092541;28;1972;-61
2022/03/10 07:32:52;;;;;;;;;;;;;;;;;;5091200;28;1300;-61
2022/03/10 07:35:17;;;;;;;;;;;;;;;;;;5092468;28;1006;-61
2022/03/10 07:37:43;;;;;;;;;;;;;;;;;;5092982;28;892;-61
2022/03/10 07:40:09;;;;;;;;;;;;;;;;;;5090735;28;836;-61
2022/03/10 07:42:34;;;;;;;;;;;;;;;;;;5091115;28;876;-61
2022/03/10 07:44:59;;;;;;;;;;;;;;;;;;5092580;28;987;-61
2022/03/10 07:47:25;;;;;;;;;;;;;;;;;;5092573;28;1070;-61
2022/03/10 07:49:50;;;;;;;;;;;;;;;;;;5090773;28;1914;-61
2022/03/10 07:52:15;;;;;;;;;;;;;;;;;;5091897;28;990;-61
2022/03/10 07:54:40;;;;;;;;;;;;;;;;;;5092318;28;820;-60
2022/03/10 07:57:06;;;;;;;;;;;;;;;;;;5092302;28;1011;-60
2022/03/10 07:59:31;;;;;;;;;;;;;;;;;;5092401;28;820;-60
2022/03/10 08:01:56;;;;;;;;;;;;;;;;;;5092339;28;754;-61
2022/03/10 08:04:22;;;;;;;;;;;;;;;;;;5092605;28;824;-61
2022/03/10 08:06:47;;;;;;;;;;;;;;;;;;5092296;28;867;-61
2022/03/10 08:09:12;;;;;;;;;;;;;;;;;;5091804;28;781;-61
2022/03/10 08:11:39;;;;;;;;;;;;;;;;;;5092659;28;1901;-61
2022/03/10 08:14:04;;;;;;;;;;;;;;;;;;5092361;28;912;-61
2022/03/10 08:16:30;;;;;;;;;;;;;;;;;;5092295;28;848;-61
2022/03/10 08:18:55;;;;;;;;;;;;;;;;;;5092300;28;1118;-61
2022/03/10 08:21:21;;;;;;;;;;;;;;;;;;5092090;28;928;-61
2022/03/10 08:23:47;;;;;;;;;;;;;;;;;;5092614;28;978;-61
2022/03/10 08:26:12;;;;;;;;;;;;;;;;;;5091826;28;998;-61
2022/03/10 08:28:37;;;;;;;;;;;;;;;;;;5092384;28;991;-61
2022/03/10 08:31:04;;;;;;;;;;;;;;;;;;5091803;28;1897;-61
2022/03/10 08:33:29;;;;;;;;;;;;;;;;;;5091557;28;824;-61
2022/03/10 08:35:55;;;;;;;;;;;;;;;;;;5091621;28;913;-61
2022/03/10 08:38:20;;;;;;;;;;;;;;;;;;5091835;28;784;-61
2022/03/10 08:40:45;;;;;;;;;;;;;;;;;;5090580;28;1356;-61
2022/03/10 08:43:12;;;;;;;;;;;;;;;;;;5091047;28;1034;-61
2022/03/10 08:45:38;;;;;;;;;;;;;;;;;;5091606;28;871;-61
2022/03/10 08:48:03;;;;;;;;;;;;;;;;;;5090812;28;971;-62
2022/03/10 08:50:29;;;;;;;;;;;;;;;;;;5089151;28;1910;-61
2022/03/10 08:52:54;;;;;;;;;;;;;;;;;;5090467;28;1070;-62
2022/03/10 08:55:20;;;;;;;;;;;;;;;;;;5089404;28;809;-62
2022/03/10 08:57:46;;;;;;;;;;;;;;;;;;5091125;28;927;-62
2022/03/10 09:00:12;;;;;;;;;;;;;;;;;;5089640;28;838;-62
2022/03/10 09:02:37;;;;;;;;;;;;;;;;;;5089603;28;808;-62
2022/03/10 09:05:04;;;;;;;;;;;;;;;;;;5089207;28;927;-61
2022/03/10 09:07:29;;;;;;;;;;;;;;;;;;5090053;28;1218;-61
2022/03/10 09:09:55;;;;;;;;;;;;;;;;;;5089157;28;1897;-61
2022/03/10 09:12:20;;;;;;;;;;;;;;;;;;5089009;28;797;-61
2022/03/10 09:14:46;;;;;;;;;;;;;;;;;;5091254;28;884;-61
2022/03/10 09:17:13;;;;;;;;;;;;;;;;;;5090474;28;864;-61
2022/03/10 09:19:38;;;;;;;;;;;;;;;;;;5091545;28;1164;-62
2022/03/10 09:22:04;;;;;;;;;;;;;;;;;;5109963;27;1342;-62
2022/03/10 09:24:30;;;;;;;;;;;;;;;;;;5111489;28;941;-62
2022/03/10 09:26:56;;;;;;;;;;;;;;;;;;5110953;28;825;-61
2022/03/10 09:29:21;;;;;;;;;;;;;;;;;;5092216;28;1678;-61
2022/03/10 09:31:48;;;;;;;;;;;;;;;;;;5111094;28;1974;-61
2022/03/10 09:34:14;;;;;;;;;;;;;;;;;;5110606;28;899;-61
2022/03/10 09:36:39;;;;;;;;;;;;;;;;;;5111404;28;970;-61
2022/03/10 09:39:04;;;;;;;;;;;;;;;;;;5110950;28;927;-61
2022/03/10 09:41:30;;;;;;;;;;;;;;;;;;5110766;28;891;-62
2022/03/10 09:43:57;;;;;;;;;;;;;;;;;;5111005;28;1128;-61
2022/03/10 09:46:22;;;;;;;;;;;;;;;;;;5110429;28;789;-61
2022/03/10 09:48:48;;;;;;;;;;;;;;;;;;5110144;28;1385;-61
2022/03/10 09:51:13;;;;;;;;;;;;;;;;;;5110452;28;1936;-61
2022/03/10 09:53:39;;;;;;;;;;;;;;;;;;5111581;28;847;-61
2022/03/10 09:56:04;;;;;;;;;;;;;;;;;;5110940;28;836;-61
2022/03/10 09:58:31;;;;;;;;;;;;;;;;;;5111386;28;804;-61
2022/03/10 10:01:03;;;;;;;;;;;;;;;;;;5109648;28;1900;-61
2022/03/10 10:03:29;;;;;;;;;;;;;;;;;;5111388;28;828;-62
2022/03/10 10:05:58;;;;;;;;;;;;;;;;;;5111290;28;891;-61
2022/03/10 10:08:24;;;;;;;;;;;;;;;;;;5110392;28;808;-62
2022/03/10 10:10:53;;;;;;;;;;;;;;;;;;5111392;28;1967;-61
2022/03/10 10:13:25;;;;;;;;;;;;;;;;;;5109315;28;871;-62
2022/03/10 10:15:57;;;;;;;;;;;;;;;;;;5111504;28;887;-62
2022/03/10 10:18:23;;;;;;;;;;;;;;;;;;5110927;28;1134;-60
2022/03/10 10:20:49;;;;;;;;;;;;;;;;;;5111004;28;875;-61
2022/03/10 10:23:15;;;;;;;;;;;;;;;;;;5109214;28;816;-61
2022/03/10 10:25:51;;;;;;;;;;;;;;;;;;5111559;28;903;-61
2022/03/10 10:28:23;;;;;;;;;;;;;;;;;;5110150;28;817;-61
2022/03/10 10:30:51;;;;;;;;;;;;;;;;;;5108871;28;1960;-61
2022/03/10 10:33:17;;;;;;;;;;;;;;;;;;5109626;28;738;-61
2022/03/10 10:35:43;;;;;;;;;;;;;;;;;;5112833;28;978;-61
2022/03/10 10:38:08;;;;;;;;;;;;;;;;;;5112833;28;796;-61
2022/03/10 10:40:34;;;;;;;;;;;;;;;;;;5112067;28;891;-61
2022/03/10 10:43:02;;;;;;;;;;;;;;;;;;5112311;28;832;-61
2022/03/10 10:45:30;;;;;;;;;;;;;;;;;;5113430;28;824;-61
2022/03/10 10:48:06;;;;;;;;;;;;;;;;;;5112838;28;677;-61
2022/03/10 10:50:32;;;;;;;;;;;;;;;;;;5113819;28;1910;-61
2022/03/10 10:52:57;;;;;;;;;;;;;;;;;;5114189;28;796;-61
2022/03/10 10:55:30;;;;;;;;;;;;;;;;;;5113684;28;919;-61
2022/03/10 10:57:55;;;;;;;;;;;;;;;;;;5113956;28;910;-61
2022/03/10 11:00:20;;;;;;;;;;;;;;;;;;5113108;28;840;-61
2022/03/10 11:02:46;;;;;;;;;;;;;;;;;;5114026;28;820;-62
2022/03/10 11:05:14;;;;;;;;;;;;;;;;;;5113454;28;984;-62
2022/03/10 11:07:42;;;;;;;;;;;;;;;;;;5114584;28;831;-61
2022/03/10 11:10:09;;;;;;;;;;;;;;;;;;5114201;28;1974;-60
2022/03/10 11:12:39;;;;;;;;;;;;;;;;;;5112230;28;793;-60
2022/03/10 11:15:06;;;;;;;;;;;;;;;;;;5113553;28;926;-61
2022/03/10 11:17:32;;;;;;;;;;;;;;;;;;5113184;28;820;-60
2022/03/10 11:19:59;;;;;;;;;;;;;;;;;;5113639;28;954;-60
2022/03/10 11:22:36;;;;;;;;;;;;;;;;;;5113032;28;749;-61
2022/03/10 11:25:03;;;;;;;;;;;;;;;;;;5113401;28;828;-61
2022/03/10 11:27:32;;;;;;;;;;;;;;;;;;5113172;28;820;-61
2022/03/10 11:30:00;;;;;;;;;;;;;;;;;;5113239;28;1905;-62
2022/03/10 11:32:29;;;;;;;;;;;;;;;;;;5112657;28;1580;-61
2022/03/10 11:34:56;;;;;;;;;;;;;;;;;;5113423;28;827;-61
2022/03/10 11:37:39;;;;;;;;;;;;;;;;;;5113048;28;874;-61
2022/03/10 11:40:05;;;;;;;;;;;;;;;;;;5113617;28;832;-61
2022/03/10 11:42:31;;;;;;;;;;;;;;;;;;5113088;28;753;-61
2022/03/10 11:45:16;;;;;;;;;;;;;;;;;;5113700;28;907;-62
2022/03/10 11:47:42;;;;;;;;;;;;;;;;;;5112535;28;864;-61
2022/03/10 11:50:22;;;;;;;;;;;;;;;;;;5113462;28;1973;-61
2022/03/10 11:52:50;;;;;;;;;;;;;;;;;;5113794;28;903;-62
2022/03/10 11:55:16;;;;;;;;;;;;;;;;;;5111733;28;1190;-62
2022/03/10 11:57:43;;;;;;;;;;;;;;;;;;5113603;28;950;-62
2022/03/10 12:00:09;;;;;;;;;;;;;;;;;;5113840;28;1142;-61
2022/03/10 12:02:39;;;;;;;;;;;;;;;;;;5113068;28;1102;-61
2022/03/10 12:05:05;;;;;;;;;;;;;;;;;;5113870;28;816;-62
2022/03/10 12:07:31;;;;;;;;;;;;;;;;;;5113216;28;847;-61
2022/03/10 12:10:00;;;;;;;;;;;;;;;;;;5113494;28;1973;-62
2022/03/10 12:12:26;;;;;;;;;;;;;;;;;;5112712;28;777;-61
2022/03/10 12:14:56;;;;;;;;;;;;;;;;;;5112674;28;1151;-62
2022/03/10 12:17:40;;;;;;;;;;;;;;;;;;5112162;28;824;-62
2022/03/10 12:20:11;;;;;;;;;;;;;;;;;;5112831;28;844;-62
2022/03/10 12:22:36;;;;;;;;;;;;;;;;;;5112583;28;981;-62
2022/03/10 12:25:18;;;;;;;;;;;;;;;;;;5112740;28;770;-63
2022/03/10 12:28:02;;;;;;;;;;;;;;;;;;5112505;28;862;-62
2022/03/10 12:30:28;;;;;;;;;;;;;;;;;;5112081;28;1882;-62
2022/03/10 12:32:54;;;;;;;;;;;;;;;;;;5112622;28;1405;-62
2022/03/10 12:35:24;;;;;;;;;;;;;;;;;;5111664;28;817;-62
2022/03/10 12:37:50;;;;;;;;;;;;;;;;;;5112321;28;942;-62
2022/03/10 12:40:23;;;;;;;;;;;;;;;;;;5111911;28;895;-62
2022/03/10 12:42:48;;;;;;;;;;;;;;;;;;5112230;28;879;-62
2022/03/10 12:45:17;;;;;;;;;;;;;;;;;;5112504;28;808;-62
2022/03/10 12:47:44;;;;;;;;;;;;;;;;;;5112775;28;849;-62
2022/03/10 12:50:11;;;;;;;;;;;;;;;;;;5112478;28;1905;-62
2022/03/10 12:52:40;;;;;;;;;;;;;;;;;;5112757;28;1119;-62
2022/03/10 12:55:05;;;;;;;;;;;;;;;;;;5111838;28;923;-63
2022/03/10 12:57:31;;;;;;;;;;;;;;;;;;5110635;28;1030;-63
2022/03/10 12:59:57;;;;;;;;;;;;;;;;;;5112129;28;903;-63
2022/03/10 13:02:24;;;;;;;;;;;;;;;;;;5111600;28;944;-62
2022/03/10 13:04:57;;;;;;;;;;;;;;;;;;5112305;28;832;-62
2022/03/10 13:07:23;;;;;;;;;;;;;;;;;;5111297;28;907;-62
2022/03/10 13:09:53;;;;;;;;;;;;;;;;;;5112248;28;777;-62
2022/03/10 13:12:25;;;;;;;;;;;;;;;;;;5111426;28;919;-62
2022/03/10 13:14:50;;;;;;;;;;;;;;;;;;5111603;28;939;-62
2022/03/10 13:17:16;;;;;;;;;;;;;;;;;;5111637;28;884;-62
2022/03/10 13:19:41;;;;;;;;;;;;;;;;;;5111573;28;872;-62
2022/03/10 13:22:07;;;;;;;;;;;;;;;;;;5093526;28;892;-62
2022/03/10 13:24:43;;;;;;;;;;;;;;;;;;5110955;28;966;-62
2022/03/10 13:27:10;;;;;;;;;;;;;;;;;;5111005;28;1294;-62
2022/03/10 13:29:36;;;;;;;;;;;;;;;;;;5111530;28;972;-62
2022/03/10 13:32:01;;;;;;;;;;;;;;;;;;5111412;28;1969;-63
2022/03/10 13:34:27;;;;;;;;;;;;;;;;;;5111293;28;1033;-62
2022/03/10 13:36:53;;;;;;;;;;;;;;;;;;5111773;28;844;-62
2022/03/10 13:39:25;;;;;;;;;;;;;;;;;;5112107;28;994;-62
2022/03/10 13:41:50;;;;;;;;;;;;;;;;;;5112000;28;844;-63
2022/03/10 13:44:16;;;;;;;;;;;;;;;;;;5111481;28;812;-62
2022/03/10 13:46:41;;;;;;;;;;;;;;;;;;5111578;28;904;-60
2022/03/10 13:49:20;;;;;;;;;;;;;;;;;;5111596;28;749;-62
2022/03/10 13:51:45;;;;;;;;;;;;;;;;;;5110731;28;1913;-62
2022/03/10 13:54:11;;;;;;;;;;;;;;;;;;5111388;28;839;-62
2022/03/10 13:56:40;;;;;;;;;;;;;;;;;;5109802;28;847;-62
2022/03/10 13:59:09;;;;;;;;;;;;;;;;;;5111453;28;797;-62
2022/03/10 14:01:36;;;;;;;;;;;;;;;;;;5110765;28;915;-62
2022/03/10 14:04:07;;;;;;;;;;;;;;;;;;5111148;28;824;-62
2022/03/10 14:06:40;;;;;;;;;;;;;;;;;;5109363;28;825;-62
2022/03/10 14:09:14;;;;;;;;;;;;;;;;;;5114760;28;855;-62
2022/03/10 14:11:40;;;;;;;;;;;;;;;;;;5115355;28;1906;-62
2022/03/10 14:14:05;;;;;;;;;;;;;;;;;;5114971;28;935;-62
2022/03/10 14:16:31;;;;;;;;;;;;;;;;;;5114561;28;804;-62
2022/03/10 14:18:57;;;;;;;;;;;;;;;;;;5114804;27;860;-62
2022/03/10 14:21:22;;;;;;;;;;;;;;;;;;5114525;28;812;-62
2022/03/10 14:23:57;;;;;;;;;;;;;;;;;;5113808;28;827;-62
2022/03/10 14:26:23;;;;;;;;;;;;;;;;;;5114182;28;841;-62
2022/03/10 14:28:49;;;;;;;;;;;;;;;;;;5114214;28;908;-62
2022/03/10 14:31:19;;;;;;;;;;;;;;;;;;5112688;28;1961;-62
2022/03/10 14:33:47;;;;;;;;;;;;;;;;;;5114138;28;913;-62
2022/03/10 14:36:13;;;;;;;;;;;;;;;;;;5114467;28;828;-62
2022/03/10 14:38:40;;;;;;;;;;;;;;;;;;5114197;28;1065;-62
2022/03/10 14:41:05;;;;;;;;;;;;;;;;;;5114292;28;900;-62
2022/03/10 14:43:31;;;;;;;;;;;;;;;;;;5114754;28;840;-62
2022/03/10 14:45:56;;;;;;;;;;;;;;;;;;5113875;28;851;-61
2022/03/10 14:48:22;;;;;;;;;;;;;;;;;;5114092;28;1088;-61
2022/03/10 14:50:47;;;;;;;;;;;;;;;;;;5113879;28;1905;-62
2022/03/10 14:53:12;;;;;;;;;;;;;;;;;;5114279;28;825;-62
2022/03/10 14:55:38;;;;;;;;;;;;;;;;;;5113845;28;824;-61
2022/03/10 14:58:04;;;;;;;;;;;;;;;;;;5114240;28;824;-61
2022/03/10 15:00:30;;;;;;;;;;;;;;;;;;5113721;28;1158;-61
2022/03/10 15:02:55;;;;;;;;;;;;;;;;;;5113895;28;860;-61
2022/03/10 15:05:20;;;;;;;;;;;;;;;;;;5114167;28;848;-61
2022/03/10 15:07:46;;;;;;;;;;;;;;;;;;5113816;28;958;-62
2022/03/10 15:10:15;;;;;;;;;;;;;;;;;;5114045;28;1969;-61
2022/03/10 15:12:41;;;;;;;;;;;;;;;;;;5114550;28;870;-62
2022/03/10 15:15:07;;;;;;;;;;;;;;;;;;5112834;28;915;-61
2022/03/10 15:17:32;;;;;;;;;;;;;;;;;;5113628;28;1061;-62
2022/03/10 15:19:57;;;;;;;;;;;;;;;;;;5112748;28;798;-60
2022/03/10 15:22:23;;;;;;;;;;;;;;;;;;5113853;28;824;-61
2022/03/10 15:24:48;;;;;;;;;;;;;;;;;;5113309;28;978;-60
2022/03/10 15:27:13;;;;;;;;;;;;;;;;;;5113187;28;899;-61
2022/03/10 15:29:39;;;;;;;;;;;;;;;;;;5112151;28;1042;-61
2022/03/10 15:32:05;;;;;;;;;;;;;;;;;;5112031;28;1898;-62
2022/03/10 15:34:31;;;;;;;;;;;;;;;;;;5113772;28;804;-62
2022/03/10 15:36:58;;;;;;;;;;;;;;;;;;5113509;28;896;-61
2022/03/10 15:39:25;;;;;;;;;;;;;;;;;;5112053;28;839;-61
2022/03/10 15:41:51;;;;;;;;;;;;;;;;;;5113458;28;871;-60
2022/03/10 15:44:16;;;;;;;;;;;;;;;;;;5112074;28;1546;-62
2022/03/10 15:46:41;;;;;;;;;;;;;;;;;;5113636;28;903;-61
2022/03/10 15:49:07;;;;;;;;;;;;;;;;;;5112022;28;809;-61
2022/03/10 15:51:34;;;;;;;;;;;;;;;;;;5113007;28;1918;-61
2022/03/10 15:54:00;;;;;;;;;;;;;;;;;;5112408;28;1135;-61
2022/03/10 15:56:25;;;;;;;;;;;;;;;;;;5113111;28;808;-61
2022/03/10 15:58:50;;;;;;;;;;;;;;;;;;5112502;28;789;-60
2022/03/10 16:01:25;;;;;;;;;;;;;;;;;;5113095;28;829;-60
2022/03/10 16:03:50;;;;;;;;;;;;;;;;;;5112546;28;855;-60
2022/03/10 16:06:16;;;;;;;;;;;;;;;;;;5111374;28;1329;-61
2022/03/10 16:08:41;;;;;;;;;;;;;;;;;;5112624;28;809;-61
2022/03/10 16:11:06;;;;;;;;;;;;;;;;;;5111035;28;1907;-61
2022/03/10 16:13:32;;;;;;;;;;;;;;;;;;5112265;28;848;-61
2022/03/10 16:15:57;;;;;;;;;;;;;;;;;;5112042;28;1164;-61
2022/03/10 16:18:24;;;;;;;;;;;;;;;;;;5110801;28;828;-60
2022/03/10 16:20:50;;;;;;;;;;;;;;;;;;5112090;28;888;-60
2022/03/10 16:23:15;;;;;;;;;;;;;;;;;;5111959;28;780;-60
2022/03/10 16:25:41;;;;;;;;;;;;;;;;;;5111951;28;954;-60
2022/03/10 16:28:06;;;;;;;;;;;;;;;;;;5112152;28;835;-61
2022/03/10 16:30:32;;;;;;;;;;;;;;;;;;5110864;28;1973;-61
2022/03/10 16:32:57;;;;;;;;;;;;;;;;;;5111299;28;1359;-61
2022/03/10 16:35:22;;;;;;;;;;;;;;;;;;5111046;28;1386;-61
2022/03/10 16:37:48;;;;;;;;;;;;;;;;;;5111486;28;1038;-61
2022/03/10 16:40:14;;;;;;;;;;;;;;;;;;5112023;28;1002;-61
2022/03/10 16:42:39;;;;;;;;;;;;;;;;;;5111891;28;892;-61
2022/03/10 16:45:05;;;;;;;;;;;;;;;;;;5111663;27;905;-61
2022/03/10 16:47:30;;;;;;;;;;;;;;;;;;5111620;28;789;-60
2022/03/10 16:49:56;;;;;;;;;;;;;;;;;;5111512;28;895;-61
2022/03/10 16:52:21;;;;;;;;;;;;;;;;;;5111604;28;1971;-61
2022/03/10 16:54:46;;;;;;;;;;;;;;;;;;5111909;28;792;-61
2022/03/10 16:57:12;;;;;;;;;;;;;;;;;;5111355;28;915;-61
2022/03/10 16:59:37;;;;;;;;;;;;;;;;;;5111981;28;896;-62
2022/03/10 17:02:03;;;;;;;;;;;;;;;;;;5111915;28;876;-61
2022/03/10 17:04:29;;;;;;;;;;;;;;;;;;5111536;28;935;-61
2022/03/10 17:06:54;;;;;;;;;;;;;;;;;;5110171;28;844;-61
2022/03/10 17:09:20;;;;;;;;;;;;;;;;;;5111830;28;900;-62
2022/03/10 17:11:45;;;;;;;;;;;;;;;;;;5111974;28;1959;-61
2022/03/10 17:14:10;;;;;;;;;;;;;;;;;;5110505;28;1192;-61